createdAt,value
2019-05-05T00:02:49.059Z,93938.41
2019-05-05T00:05:37.143Z,93927.66
2019-05-05T00:08:05.069Z,93929.27
2019-05-05T00:10:50.723Z,93926.44
2019-05-05T00:13:25.247Z,93931.77
2019-05-05T00:16:12.464Z,93943.36
2019-05-05T00:18:40.075Z,93949.78
2019-05-05T00:21:07.544Z,93938.91
2019-05-05T00:23:35.097Z,93936.77
2019-05-05T00:26:04.388Z,93928.33
2019-05-05T00:28:32.065Z,93928.66
2019-05-05T00:30:59.470Z,93936.36
2019-05-05T00:33:26.902Z,93936.55
2019-05-05T00:35:54.617Z,93942.78
2019-05-05T00:38:22.215Z,93945.38
2019-05-05T00:40:49.654Z,93939.09
2019-05-05T00:43:17.122Z,93943.43
2019-05-05T00:45:46.476Z,93940.77
2019-05-05T00:48:24.526Z,93944.49
2019-05-05T00:50:52.045Z,93962.16
2019-05-05T00:53:19.472Z,93939.59
2019-05-05T00:55:46.840Z,93939.18
2019-05-05T00:58:14.415Z,93938.14
2019-05-05T01:00:50.248Z,93944.45
2019-05-05T01:03:19.875Z,93943.19
2019-05-05T01:05:58.362Z,93934.19
2019-05-05T01:08:27.781Z,93934.56
2019-05-05T01:10:55.198Z,93938.22
2019-05-05T01:13:24.559Z,93944.13
2019-05-05T01:15:54.077Z,93947.22
2019-05-05T01:18:21.669Z,93942.40
2019-05-05T01:20:49.209Z,93937.69
2019-05-05T01:23:16.766Z,93936.44
2019-05-05T01:25:45.497Z,93939.76
2019-05-05T01:28:14.403Z,93934.65
2019-05-05T01:30:44.613Z,93925.27
2019-05-05T01:33:18.300Z,93912.67
2019-05-05T01:35:45.847Z,93914.67
2019-05-05T01:38:26.851Z,93906.35
2019-05-05T01:41:14.633Z,93907.61
2019-05-05T01:43:41.737Z,93912.55
2019-05-05T01:46:09.363Z,93914.39
2019-05-05T01:48:36.828Z,93919.23
2019-05-05T01:51:05.006Z,93911.17
2019-05-05T01:53:32.535Z,93911.05
2019-05-05T01:56:00.472Z,93908.81
2019-05-05T01:58:28.113Z,93914.98
2019-05-05T02:00:55.539Z,93905.03
2019-05-05T02:03:24.413Z,93897.98
2019-05-05T02:05:52.051Z,93904.37
2019-05-05T02:08:19.448Z,93906.41
2019-05-05T02:10:46.880Z,93917.02
2019-05-05T02:13:16.072Z,93911.25
2019-05-05T02:15:44.615Z,93905.55
2019-05-05T02:18:12.253Z,93906.18
2019-05-05T02:21:05.193Z,93910.37
2019-05-05T02:23:35.127Z,93904.83
2019-05-05T02:26:04.621Z,93901.33
2019-05-05T02:28:41.735Z,93893.81
2019-05-05T02:31:18.927Z,93901.96
2019-05-05T02:33:46.458Z,93893.52
2019-05-05T02:36:15.978Z,93896.87
2019-05-05T02:38:46.296Z,93892.08
2019-05-05T02:41:15.472Z,93889.34
2019-05-05T02:43:44.946Z,93890.58
2019-05-05T02:46:35.612Z,93874.90
2019-05-05T02:49:05.415Z,93879.95
2019-05-05T02:51:35.600Z,93873.77
2019-05-05T02:54:05.042Z,93883.64
2019-05-05T02:56:43.642Z,93882.30
2019-05-05T02:59:16.956Z,93869.23
2019-05-05T03:02:00.908Z,93858.39
2019-05-05T03:04:28.666Z,93878.01
2019-05-05T03:06:57.629Z,93867.49
2019-05-05T03:09:27.691Z,93848.88
2019-05-05T03:11:58.238Z,93855.03
2019-05-05T03:14:27.865Z,93849.59
2019-05-05T03:16:56.024Z,93857.97
2019-05-05T03:19:24.496Z,93865.81
2019-05-05T03:21:54.547Z,93864.56
2019-05-05T03:24:23.610Z,93869.84
2019-05-05T03:26:53.677Z,93868.03
2019-05-05T03:29:21.466Z,93854.27
2019-05-05T03:31:49.937Z,93845.40
2019-05-05T03:34:19.083Z,93837.14
2019-05-05T03:36:47.017Z,93836.61
2019-05-05T03:39:25.551Z,93834.42
2019-05-05T03:42:10.709Z,93830.09
2019-05-05T03:44:45.074Z,93820.77
2019-05-05T03:47:13.963Z,93837.16
2019-05-05T03:49:41.815Z,93828.80
2019-05-05T03:52:09.387Z,93827.70
2019-05-05T03:54:36.901Z,93814.23
2019-05-05T03:57:07.835Z,93817.17
2019-05-05T03:59:38.159Z,93821.52
2019-05-05T04:02:15.355Z,93814.54
2019-05-05T04:04:46.221Z,93813.75
2019-05-05T04:07:14.043Z,93821.63
2019-05-05T04:09:43.767Z,93824.16
2019-05-05T04:12:13.732Z,93830.80
2019-05-05T04:14:44.103Z,93846.59
2019-05-05T04:17:40.056Z,93840.83
2019-05-05T04:20:30.308Z,93841.31
2019-05-05T04:22:58.285Z,93844.14
2019-05-05T04:25:26.003Z,93848.83
2019-05-05T04:27:53.898Z,93860.22
2019-05-05T04:30:23.493Z,93867.62
2019-05-05T04:32:50.960Z,93876.03
2019-05-05T04:35:18.407Z,93868.98
2019-05-05T04:37:45.850Z,93870.12
2019-05-05T04:40:14.797Z,93887.29
2019-05-05T04:42:44.094Z,93897.39
2019-05-05T04:45:12.059Z,93888.50
2019-05-05T04:47:43.591Z,93895.05
2019-05-05T04:50:39.929Z,93907.40
2019-05-05T04:53:13.449Z,93907.65
2019-05-05T04:55:40.719Z,93891.94
2019-05-05T04:58:08.151Z,93889.72
2019-05-05T05:00:35.583Z,93901.45
2019-05-05T05:03:34.828Z,93899.73
2019-05-05T05:06:08.676Z,93903.70
2019-05-05T05:08:36.102Z,93891.84
2019-05-05T05:11:03.770Z,93883.70
2019-05-05T05:13:31.191Z,93882.45
2019-05-05T05:15:58.608Z,93886.42
2019-05-05T05:18:26.125Z,93897.41
2019-05-05T05:20:55.029Z,93900.76
2019-05-05T05:23:24.482Z,93897.28
2019-05-05T05:25:51.883Z,93887.88
2019-05-05T05:28:19.390Z,93897.16
2019-05-05T05:30:46.896Z,93891.45
2019-05-05T05:33:15.035Z,93895.02
2019-05-05T05:35:44.111Z,93897.50
2019-05-05T05:38:13.851Z,93879.70
2019-05-05T05:40:55.558Z,93853.70
2019-05-05T05:43:30.204Z,93836.18
2019-05-05T05:46:15.841Z,93839.56
2019-05-05T05:49:01.439Z,93850.95
2019-05-05T05:51:28.909Z,93878.52
2019-05-05T05:53:56.313Z,93875.41
2019-05-05T05:56:24.946Z,93858.34
2019-05-05T05:58:54.273Z,93843.06
2019-05-05T06:01:23.861Z,93839.86
2019-05-05T06:03:51.175Z,93838.23
2019-05-05T06:06:18.619Z,93844.05
2019-05-05T06:08:46.183Z,93847.86
2019-05-05T06:11:13.792Z,93849.97
2019-05-05T06:13:41.224Z,93844.16
2019-05-05T06:16:08.671Z,93840.95
2019-05-05T06:18:36.637Z,93859.45
2019-05-05T06:21:04.716Z,93854.62
2019-05-05T06:23:34.228Z,93835.31
2019-05-05T06:26:06.250Z,93844.52
2019-05-05T06:28:30.863Z,93850.34
2019-05-05T06:30:58.285Z,93865.66
2019-05-05T06:33:25.768Z,93865.55
2019-05-05T06:35:53.663Z,93862.20
2019-05-05T06:38:21.255Z,93865.55
2019-05-05T06:40:57.743Z,93870.73
2019-05-05T06:43:35.355Z,93881.45
2019-05-05T06:46:04.637Z,93876.23
2019-05-05T06:48:34.220Z,93885.67
2019-05-05T06:51:03.816Z,93887.38
2019-05-05T06:53:30.691Z,93904.05
2019-05-05T06:55:58.115Z,93909.33
2019-05-05T06:58:25.556Z,93908.48
2019-05-05T07:00:54.293Z,93913.81
2019-05-05T07:03:24.120Z,93912.72
2019-05-05T07:05:53.778Z,93914.03
2019-05-05T07:08:20.636Z,93915.40
2019-05-05T07:10:48.048Z,93895.53
2019-05-05T07:13:15.795Z,93896.98
2019-05-05T07:15:43.903Z,93890.73
2019-05-05T07:18:11.601Z,93884.67
2019-05-05T07:20:39.176Z,93882.34
2019-05-05T07:23:06.645Z,93881.14
2019-05-05T07:25:42.883Z,93873.05
2019-05-05T07:28:04.253Z,93872.80
2019-05-05T07:30:33.596Z,93880.08
2019-05-05T07:33:01.123Z,93884.27
2019-05-05T07:35:55.293Z,93875.75
2019-05-05T07:38:13.905Z,93894.48
2019-05-05T07:40:41.595Z,93880.60
2019-05-05T07:43:09.044Z,93875.31
2019-05-05T07:45:36.471Z,93888.58
2019-05-05T07:48:04.820Z,93889.48
2019-05-05T07:50:35.526Z,93889.16
2019-05-05T07:53:12.389Z,93894.48
2019-05-05T07:55:31.179Z,93878.30
2019-05-05T07:57:58.618Z,93878.48
2019-05-05T08:00:26.093Z,93879.27
2019-05-05T08:02:54.421Z,93868.22
2019-05-05T08:05:22.127Z,93873.80
2019-05-05T08:07:49.492Z,93885.30
2019-05-05T08:10:16.957Z,93882.00
2019-05-05T08:12:44.393Z,93878.41
2019-05-05T08:15:14.809Z,93885.30
2019-05-05T08:18:14.151Z,93896.37
2019-05-05T08:20:44.431Z,93884.47
2019-05-05T08:23:31.737Z,93879.87
2019-05-05T08:26:01.101Z,93882.07
2019-05-05T08:28:34.238Z,93881.45
2019-05-05T08:31:21.164Z,93878.59
2019-05-05T08:33:48.562Z,93879.53
2019-05-05T08:36:16.126Z,93864.08
2019-05-05T08:38:44.126Z,93880.77
2019-05-05T08:41:13.744Z,93886.02
2019-05-05T08:43:41.090Z,93881.61
2019-05-05T08:46:08.549Z,93885.55
2019-05-05T08:48:35.944Z,93894.53
2019-05-05T08:51:04.837Z,93890.14
2019-05-05T08:53:44.137Z,93885.44
2019-05-05T08:56:03.946Z,93891.10
2019-05-05T08:58:31.284Z,93894.33
2019-05-05T09:00:58.697Z,93907.74
2019-05-05T09:03:26.160Z,93902.77
2019-05-05T09:05:54.218Z,93904.35
2019-05-05T09:08:24.005Z,93903.41
2019-05-05T09:10:53.033Z,93904.46
2019-05-05T09:13:20.666Z,93913.39
2019-05-05T09:15:48.103Z,93910.59
2019-05-05T09:18:15.599Z,93910.79
2019-05-05T09:20:44.566Z,93908.36
2019-05-05T09:23:14.564Z,93894.77
2019-05-05T09:25:49.588Z,93900.02
2019-05-05T09:28:44.476Z,93890.30
2019-05-05T09:31:11.833Z,93878.80
2019-05-05T09:33:39.259Z,93872.72
2019-05-05T09:36:06.827Z,93870.91
2019-05-05T09:38:34.864Z,93872.94
2019-05-05T09:41:03.833Z,93871.12
2019-05-05T09:43:31.456Z,93873.89
2019-05-05T09:45:58.879Z,93867.30
2019-05-05T09:48:26.592Z,93857.05
2019-05-05T09:50:54.219Z,93847.26
2019-05-05T09:53:23.633Z,93862.12
2019-05-05T09:55:51.079Z,93847.37
2019-05-05T09:58:18.507Z,93854.45
2019-05-05T10:00:46.489Z,93842.14
2019-05-05T10:03:14.492Z,93842.35
2019-05-05T10:05:42.274Z,93846.02
2019-05-05T10:08:09.651Z,93830.34
2019-05-05T10:10:37.142Z,93841.65
2019-05-05T10:13:04.602Z,93831.80
2019-05-05T10:15:32.055Z,93823.06
2019-05-05T10:17:59.921Z,93829.52
2019-05-05T10:20:27.425Z,93813.56
2019-05-05T10:22:54.907Z,93811.37
2019-05-05T10:25:38.671Z,93812.04
2019-05-05T10:28:06.188Z,93807.25
2019-05-05T10:30:33.889Z,93810.06
2019-05-05T10:33:03.609Z,93817.44
2019-05-05T10:35:30.752Z,93818.12
2019-05-05T10:37:58.207Z,93825.63
2019-05-05T10:40:30.094Z,93816.09
2019-05-05T10:42:57.543Z,93818.38
2019-05-05T10:45:25.113Z,93808.30
2019-05-05T10:47:52.732Z,93800.39
2019-05-05T10:50:20.222Z,93802.57
2019-05-05T10:52:47.665Z,93805.63
2019-05-05T10:55:16.580Z,93795.89
2019-05-05T10:57:43.973Z,93810.07
2019-05-05T11:00:15.356Z,93811.64
2019-05-05T11:02:41.955Z,93834.15
2019-05-05T11:05:09.822Z,93832.41
2019-05-05T11:07:37.559Z,93810.23
2019-05-05T11:10:06.507Z,93819.94
2019-05-05T11:12:33.894Z,93819.69
2019-05-05T11:15:03.941Z,93823.02
2019-05-05T11:17:31.077Z,93813.13
2019-05-05T11:19:58.906Z,93807.77
2019-05-05T11:22:26.477Z,93822.42
2019-05-05T11:25:00.534Z,93820.85
2019-05-05T11:27:24.104Z,93798.53
2019-05-05T11:30:20.513Z,93801.05
2019-05-05T11:33:06.511Z,93808.23
2019-05-05T11:35:53.884Z,93816.02
2019-05-05T11:38:21.407Z,93813.89
2019-05-05T11:40:48.945Z,93811.31
2019-05-05T11:43:16.506Z,93802.40
2019-05-05T11:45:44.051Z,93800.85
2019-05-05T11:48:11.459Z,93797.27
2019-05-05T11:50:38.908Z,93788.39
2019-05-05T11:53:06.313Z,93798.81
2019-05-05T11:55:33.799Z,93792.42
2019-05-05T11:58:01.171Z,93793.43
2019-05-05T12:00:28.651Z,93792.09
2019-05-05T12:02:56.114Z,93796.39
2019-05-05T12:05:24.382Z,93790.31
2019-05-05T12:07:54.028Z,93799.59
2019-05-05T12:10:39.589Z,93791.44
2019-05-05T12:13:08.999Z,93794.38
2019-05-05T12:15:36.454Z,93785.11
2019-05-05T12:18:04.369Z,93791.97
2019-05-05T12:20:34.735Z,93792.52
2019-05-05T12:23:04.477Z,93792.52
2019-05-05T12:25:49.835Z,93791.69
2019-05-05T12:28:30.607Z,93797.64
2019-05-05T12:31:00.011Z,93791.48
2019-05-05T12:33:27.490Z,93787.00
2019-05-05T12:35:54.836Z,93791.98
2019-05-05T12:38:24.107Z,93788.95
2019-05-05T12:40:53.506Z,93792.91
2019-05-05T12:43:21.019Z,93778.00
2019-05-05T12:45:53.979Z,93779.14
2019-05-05T12:48:29.512Z,93773.36
2019-05-05T12:50:57.075Z,93773.98
2019-05-05T12:53:24.637Z,93777.28
2019-05-05T12:55:53.822Z,93776.92
2019-05-05T12:58:21.368Z,93770.30
2019-05-05T13:01:17.375Z,93792.32
2019-05-05T13:03:44.975Z,93783.61
2019-05-05T13:06:14.596Z,93775.08
2019-05-05T13:08:42.044Z,93772.43
2019-05-05T13:11:09.577Z,93777.40
2019-05-05T13:13:37.161Z,93771.15
2019-05-05T13:16:04.545Z,93784.95
2019-05-05T13:18:33.862Z,93780.95
2019-05-05T13:21:24.006Z,93771.72
2019-05-05T13:24:04.851Z,93769.64
2019-05-05T13:26:53.678Z,93769.05
2019-05-05T13:29:21.249Z,93774.46
2019-05-05T13:31:48.994Z,93765.67
2019-05-05T13:34:16.466Z,93760.66
2019-05-05T13:36:44.242Z,93764.67
2019-05-05T13:39:14.209Z,93750.03
2019-05-05T13:41:41.373Z,93749.27
2019-05-05T13:44:14.963Z,93750.47
2019-05-05T13:46:44.267Z,93744.84
2019-05-05T13:49:26.140Z,93749.44
2019-05-05T13:51:54.124Z,93768.61
2019-05-05T13:54:21.734Z,93759.33
2019-05-05T13:56:49.191Z,93770.47
2019-05-05T13:59:16.619Z,93772.91
2019-05-05T14:01:44.825Z,93774.22
2019-05-05T14:04:12.405Z,93780.05
2019-05-05T14:06:39.845Z,93768.78
2019-05-05T14:09:07.690Z,93770.53
2019-05-05T14:11:35.142Z,93772.86
2019-05-05T14:14:02.558Z,93780.12
2019-05-05T14:16:29.975Z,93785.07
2019-05-05T14:18:57.452Z,93780.23
2019-05-05T14:21:24.920Z,93792.13
2019-05-05T14:24:03.672Z,93783.86
2019-05-05T14:26:32.367Z,93790.41
2019-05-05T14:29:00.230Z,93776.10
2019-05-05T14:31:33.802Z,93772.42
2019-05-05T14:34:04.444Z,93763.00
2019-05-05T14:36:46.722Z,93751.05
2019-05-05T14:39:15.286Z,93765.91
2019-05-05T14:41:44.571Z,93755.23
2019-05-05T14:44:13.454Z,93755.48
2019-05-05T14:46:40.933Z,93754.99
2019-05-05T14:49:08.510Z,93758.91
2019-05-05T14:51:35.967Z,93749.36
2019-05-05T14:54:04.622Z,93759.23
2019-05-05T14:56:36.459Z,93772.09
2019-05-05T14:59:03.579Z,93778.38
2019-05-05T15:01:30.846Z,93777.19
2019-05-05T15:03:58.325Z,93771.36
2019-05-05T15:06:39.820Z,93766.36
2019-05-05T15:09:15.254Z,93764.49
2019-05-05T15:12:03.755Z,93771.48
2019-05-05T15:14:31.301Z,93766.87
2019-05-05T15:16:58.694Z,93769.62
2019-05-05T15:19:26.169Z,93771.31
2019-05-05T15:21:53.718Z,93758.63
2019-05-05T15:24:21.213Z,93771.63
2019-05-05T15:26:52.040Z,93770.49
2019-05-05T15:29:17.994Z,93779.54
2019-05-05T15:31:45.350Z,93765.66
2019-05-05T15:34:12.782Z,93763.12
2019-05-05T15:36:40.229Z,93771.01
2019-05-05T15:39:08.386Z,93761.23
2019-05-05T15:41:35.874Z,93763.34
2019-05-05T15:44:03.773Z,93763.53
2019-05-05T15:46:33.579Z,93759.72
2019-05-05T15:49:00.793Z,93767.52
2019-05-05T15:51:28.362Z,93769.11
2019-05-05T15:53:55.798Z,93767.19
2019-05-05T15:56:24.462Z,93770.78
2019-05-05T15:58:51.909Z,93758.16
2019-05-05T16:01:19.373Z,93757.22
2019-05-05T16:03:46.812Z,93761.77
2019-05-05T16:06:14.359Z,93774.81
2019-05-05T16:08:41.861Z,93776.20
2019-05-05T16:11:09.325Z,93763.66
2019-05-05T16:13:37.027Z,93764.38
2019-05-05T16:16:34.148Z,93765.42
2019-05-05T16:19:29.882Z,93763.34
2019-05-05T16:22:14.546Z,93770.38
2019-05-05T16:24:44.644Z,93773.54
2019-05-05T16:27:21.711Z,93773.23
2019-05-05T16:29:41.654Z,93767.52
2019-05-05T16:32:19.544Z,93770.02
2019-05-05T16:34:38.694Z,93780.58
2019-05-05T16:37:06.135Z,93778.56
2019-05-05T16:39:33.699Z,93786.01
2019-05-05T16:42:01.335Z,93796.57
2019-05-05T16:44:28.751Z,93794.77
2019-05-05T16:46:57.425Z,93794.14
2019-05-05T16:49:25.066Z,93792.46
2019-05-05T16:52:14.621Z,93798.38
2019-05-05T16:55:05.561Z,93791.05
2019-05-05T16:57:34.763Z,93784.03
2019-05-05T17:00:02.656Z,93788.70
2019-05-05T17:02:30.003Z,93791.55
2019-05-05T17:04:57.465Z,93795.65
2019-05-05T17:07:24.900Z,93801.33
2019-05-05T17:09:52.333Z,93806.98
2019-05-05T17:12:19.696Z,93802.46
2019-05-05T17:15:18.924Z,93815.08
2019-05-05T17:17:54.034Z,93797.81
2019-05-05T17:20:24.587Z,93810.25
2019-05-05T17:22:56.051Z,93810.67
2019-05-05T17:25:24.604Z,93802.56
2019-05-05T17:27:54.416Z,93812.53
2019-05-05T17:30:24.516Z,93816.77
2019-05-05T17:32:52.094Z,93813.89
2019-05-05T17:35:19.534Z,93812.20
2019-05-05T17:37:46.965Z,93808.38
2019-05-05T17:40:30.339Z,93810.40
2019-05-05T17:43:24.436Z,93809.23
2019-05-05T17:45:58.263Z,93821.43
2019-05-05T17:48:35.582Z,93828.14
2019-05-05T17:51:23.483Z,93841.52
2019-05-05T17:54:26.285Z,93833.17
2019-05-05T17:56:55.058Z,93845.81
2019-05-05T17:59:23.682Z,93838.95
2019-05-05T18:01:51.243Z,93839.70
2019-05-05T18:04:18.614Z,93854.58
2019-05-05T18:06:54.801Z,93852.19
2019-05-05T18:09:43.795Z,93855.42
2019-05-05T18:12:45.522Z,93859.35
2019-05-05T18:15:34.133Z,93856.92
2019-05-05T18:18:01.725Z,93867.03
2019-05-05T18:20:29.212Z,93868.69
2019-05-05T18:22:57.243Z,93866.63
2019-05-05T18:25:24.652Z,93871.84
2019-05-05T18:27:52.099Z,93876.69
2019-05-05T18:30:19.550Z,93889.55
2019-05-05T18:32:46.942Z,93888.78
2019-05-05T18:35:14.360Z,93888.45
2019-05-05T18:37:43.512Z,93901.27
2019-05-05T18:40:11.245Z,93906.02
2019-05-05T18:42:38.661Z,93906.92
2019-05-05T18:45:09.772Z,93907.75
2019-05-05T18:47:37.205Z,93908.76
2019-05-05T18:50:05.113Z,93909.94
2019-05-05T18:52:34.512Z,93913.77
2019-05-05T18:55:02.009Z,93910.02
2019-05-05T18:57:29.430Z,93905.96
2019-05-05T18:59:56.911Z,93918.95
2019-05-05T19:02:49.900Z,93924.27
2019-05-05T19:05:36.959Z,93927.72
2019-05-05T19:08:10.116Z,93932.25
2019-05-05T19:10:37.566Z,93914.30
2019-05-05T19:13:04.988Z,93915.94
2019-05-05T19:15:32.520Z,93923.72
2019-05-05T19:17:59.969Z,93914.55
2019-05-05T19:20:44.444Z,93911.94
2019-05-05T19:23:12.116Z,93925.08
2019-05-05T19:25:39.582Z,93928.16
2019-05-05T19:28:06.986Z,93927.80
2019-05-05T19:30:36.166Z,93952.09
2019-05-05T19:33:04.551Z,93945.90
2019-05-05T19:35:43.577Z,93940.34
2019-05-05T19:38:01.494Z,93922.84
2019-05-05T19:40:28.932Z,93944.78
2019-05-05T19:42:56.384Z,93949.48
2019-05-05T19:45:24.099Z,93944.97
2019-05-05T19:47:53.184Z,93933.28
2019-05-05T19:50:28.185Z,93924.13
2019-05-05T19:52:55.599Z,93910.28
2019-05-05T19:55:23.014Z,93909.41
2019-05-05T19:57:50.556Z,93901.32
2019-05-05T20:00:18.291Z,93899.56
2019-05-05T20:02:45.714Z,93900.66
2019-05-05T20:05:13.986Z,93911.92
2019-05-05T20:07:43.744Z,93896.00
2019-05-05T20:10:10.798Z,93888.14
2019-05-05T20:12:38.250Z,93902.84
2019-05-05T20:15:08.182Z,93904.24
2019-05-05T20:17:36.745Z,93898.13
2019-05-05T20:20:05.545Z,93910.36
2019-05-05T20:22:34.766Z,93905.56
2019-05-05T20:25:04.374Z,93905.24
2019-05-05T20:27:34.219Z,93904.52
2019-05-05T20:30:01.428Z,93904.53
2019-05-05T20:32:48.355Z,93906.42
2019-05-05T20:35:33.784Z,93891.19
2019-05-05T20:38:08.490Z,93899.87
2019-05-05T20:40:41.257Z,93886.50
2019-05-05T20:43:08.741Z,93889.75
2019-05-05T20:45:36.234Z,93893.88
2019-05-05T20:48:04.467Z,93871.89
2019-05-05T20:50:34.192Z,93868.55
2019-05-05T20:53:01.654Z,93881.27
2019-05-05T20:55:29.044Z,93889.97
2019-05-05T20:57:56.604Z,93884.67
2019-05-05T21:00:24.196Z,93883.01
2019-05-05T21:02:53.663Z,93892.45
2019-05-05T21:05:20.986Z,93888.48
2019-05-05T21:07:48.384Z,93893.81
2019-05-05T21:10:16.014Z,93894.95
2019-05-05T21:12:45.569Z,93895.20
2019-05-05T21:15:13.213Z,93891.40
2019-05-05T21:17:40.877Z,93896.84
2019-05-05T21:20:08.586Z,93891.62
2019-05-05T21:22:45.410Z,93894.70
2019-05-05T21:25:25.083Z,93891.09
2019-05-05T21:27:52.627Z,93894.80
2019-05-05T21:30:20.061Z,93896.37
2019-05-05T21:32:47.478Z,93892.18
2019-05-05T21:35:14.902Z,93898.52
2019-05-05T21:37:42.315Z,93899.52
2019-05-05T21:40:10.373Z,93899.73
2019-05-05T21:42:37.809Z,93892.31
2019-05-05T21:45:05.227Z,93889.34
2019-05-05T21:47:34.516Z,93888.90
2019-05-05T21:50:03.731Z,93896.73
2019-05-05T21:52:40.312Z,93900.22
2019-05-05T21:55:36.661Z,93889.22
2019-05-05T21:58:08.937Z,93882.58
2019-05-05T22:01:04.189Z,93874.16
2019-05-05T22:03:34.839Z,93883.91
2019-05-05T22:06:03.749Z,93869.89
2019-05-05T22:08:33.486Z,93876.67
2019-05-05T22:11:00.749Z,93875.56
2019-05-05T22:13:28.195Z,93877.76
2019-05-05T22:15:55.648Z,93885.90
2019-05-05T22:18:23.021Z,93892.20
2019-05-05T22:21:04.287Z,93884.90
2019-05-05T22:23:34.038Z,93899.73
2019-05-05T22:26:01.259Z,93906.30
2019-05-05T22:28:28.644Z,93903.83
2019-05-05T22:30:56.110Z,93906.56
2019-05-05T22:33:24.679Z,93907.92
2019-05-05T22:35:52.352Z,93916.91
2019-05-05T22:38:19.775Z,93914.44
2019-05-05T22:40:47.314Z,93914.73
2019-05-05T22:43:14.768Z,93908.10
2019-05-05T22:45:44.865Z,93908.41
2019-05-05T22:48:14.219Z,93902.38
2019-05-05T22:50:43.516Z,93907.84
2019-05-05T22:53:10.582Z,93904.76
2019-05-05T22:55:38.126Z,93917.14
2019-05-05T22:58:05.559Z,93917.42
2019-05-05T23:00:34.805Z,93921.73
2019-05-05T23:03:09.565Z,93919.69
2019-05-05T23:05:44.945Z,93915.91
2019-05-05T23:08:13.611Z,93922.33
2019-05-05T23:10:41.190Z,93932.74
2019-05-05T23:13:08.566Z,93911.70
2019-05-05T23:15:38.524Z,93902.93
2019-05-05T23:18:31.498Z,93907.52
2019-05-05T23:21:31.262Z,93916.27
2019-05-05T23:24:30.170Z,93914.52
2019-05-05T23:26:57.609Z,93917.87
2019-05-05T23:29:26.648Z,93911.22
2019-05-05T23:31:54.335Z,93908.59
2019-05-05T23:34:21.765Z,93912.14
2019-05-05T23:36:49.211Z,93916.31
2019-05-05T23:39:16.656Z,93918.13
2019-05-05T23:41:44.095Z,93920.31
2019-05-05T23:44:11.516Z,93910.53
2019-05-05T23:46:38.954Z,93915.75
2019-05-05T23:49:06.335Z,93941.45
2019-05-05T23:51:34.782Z,93933.42
2019-05-05T23:54:04.226Z,93944.21
2019-05-05T23:56:31.784Z,93925.11
2019-05-05T23:58:59.345Z,93923.23
